createdAt,value
2023-05-28T00:00:19.723Z,12.20
2023-05-28T00:02:47.785Z,12.20
2023-05-28T00:05:14.643Z,12.20
2023-05-28T00:07:43.024Z,12.10
2023-05-28T00:10:10.508Z,12.10
2023-05-28T00:12:37.592Z,12.10
2023-05-28T00:15:04.767Z,11.90
2023-05-28T00:17:31.634Z,11.80
2023-05-28T00:19:58.434Z,11.80
2023-05-28T00:22:26.271Z,11.80
2023-05-28T00:24:53.397Z,11.70
2023-05-28T00:27:20.290Z,11.60
2023-05-28T00:29:47.142Z,11.70
2023-05-28T00:32:14.046Z,11.70
2023-05-28T00:34:40.818Z,11.80
2023-05-28T00:37:07.740Z,11.60
2023-05-28T00:39:34.930Z,11.60
2023-05-28T00:42:05.714Z,11.70
2023-05-28T00:44:32.714Z,11.50
2023-05-28T00:47:00.740Z,11.60
2023-05-28T00:49:28.312Z,11.50
2023-05-28T00:51:56.562Z,11.40
2023-05-28T00:54:24.727Z,11.30
2023-05-28T00:56:53.729Z,11.40
2023-05-28T00:59:21.016Z,11.40
2023-05-28T01:01:48.645Z,11.30
2023-05-28T01:04:16.378Z,11.30
2023-05-28T01:06:44.627Z,11.30
2023-05-28T01:09:12.151Z,11.20
2023-05-28T01:11:42.171Z,11.10
2023-05-28T01:14:09.487Z,11.10
2023-05-28T01:16:36.605Z,11.10
2023-05-28T01:19:10.023Z,11.10
2023-05-28T01:21:42.991Z,11.10
2023-05-28T01:24:11.320Z,11.00
2023-05-28T01:26:39.063Z,11.00
2023-05-28T01:29:19.492Z,11.00
2023-05-28T01:31:46.841Z,10.80
2023-05-28T01:34:14.360Z,10.80
2023-05-28T01:36:57.590Z,10.80
2023-05-28T01:39:28.680Z,10.70
2023-05-28T01:41:56.671Z,10.70
2023-05-28T01:44:24.861Z,10.80
2023-05-28T01:46:54.233Z,10.80
2023-05-28T01:49:22.697Z,10.60
2023-05-28T01:51:51.761Z,10.60
2023-05-28T01:54:19.004Z,10.60
2023-05-28T01:56:46.475Z,10.60
2023-05-28T01:59:13.531Z,10.40
2023-05-28T02:01:40.648Z,10.50
2023-05-28T02:04:09.865Z,10.40
2023-05-28T02:06:37.602Z,10.40
2023-05-28T02:09:04.711Z,10.30
2023-05-28T02:11:31.600Z,10.40
2023-05-28T02:13:59.325Z,10.40
2023-05-28T02:16:29.667Z,10.40
2023-05-28T02:18:56.746Z,10.40
2023-05-28T02:21:24.946Z,10.30
2023-05-28T02:23:52.216Z,10.20
2023-05-28T02:26:19.648Z,10.20
2023-05-28T02:28:46.927Z,10.30
2023-05-28T02:31:15.138Z,10.20
2023-05-28T02:33:45.372Z,10.10
2023-05-28T02:36:13.111Z,10.00
2023-05-28T02:38:41.063Z,10.00
2023-05-28T02:41:09.366Z,10.00
2023-05-28T02:43:38.164Z,10.00
2023-05-28T02:46:08.193Z,10.00
2023-05-28T02:48:36.083Z,10.00
2023-05-28T02:51:04.076Z,10.00
2023-05-28T02:53:39.616Z,10.10
2023-05-28T02:56:07.072Z,10.10
2023-05-28T02:58:37.302Z,10.10
2023-05-28T03:01:07.818Z,10.00
2023-05-28T03:03:35.028Z,10.00
2023-05-28T03:06:02.681Z,9.90
2023-05-28T03:08:32.944Z,9.90
2023-05-28T03:11:00.557Z,9.90
2023-05-28T03:13:27.344Z,9.80
2023-05-28T03:15:54.678Z,9.70
2023-05-28T03:18:21.940Z,9.60
2023-05-28T03:20:49.177Z,9.60
2023-05-28T03:23:16.460Z,9.70
2023-05-28T03:26:00.826Z,9.70
2023-05-28T03:28:27.695Z,9.50
2023-05-28T03:31:13.924Z,9.50
2023-05-28T03:33:41.191Z,9.60
2023-05-28T03:36:08.617Z,9.60
2023-05-28T03:38:36.304Z,9.50
2023-05-28T03:41:03.233Z,9.50
2023-05-28T03:43:31.625Z,9.60
2023-05-28T03:45:58.607Z,9.50
2023-05-28T03:48:25.525Z,9.40
2023-05-28T03:50:52.408Z,9.40
2023-05-28T03:53:20.574Z,9.40
2023-05-28T03:55:47.828Z,9.40
2023-05-28T03:58:17.355Z,9.40
2023-05-28T04:00:44.377Z,9.50
2023-05-28T04:03:11.854Z,9.30
2023-05-28T04:05:42.292Z,9.40
2023-05-28T04:08:09.497Z,9.40
2023-05-28T04:10:36.729Z,9.50
2023-05-28T04:13:03.585Z,9.50
2023-05-28T04:15:31.521Z,9.60
2023-05-28T04:17:58.716Z,9.50
2023-05-28T04:20:25.711Z,9.60
2023-05-28T04:22:52.655Z,9.60
2023-05-28T04:25:20.094Z,9.60
2023-05-28T04:27:47.657Z,9.60
2023-05-28T04:30:14.969Z,9.70
2023-05-28T04:32:41.873Z,9.80
2023-05-28T04:35:09.570Z,9.80
2023-05-28T04:37:38.116Z,9.70
2023-05-28T04:40:06.682Z,9.90
2023-05-28T04:42:33.889Z,9.70
2023-05-28T04:45:02.150Z,9.70
2023-05-28T04:47:29.963Z,9.90
2023-05-28T04:49:59.097Z,10.00
2023-05-28T04:52:26.455Z,10.10
2023-05-28T04:54:53.494Z,10.20
2023-05-28T04:57:21.207Z,10.20
2023-05-28T04:59:48.059Z,10.20
2023-05-28T05:02:17.986Z,10.30
2023-05-28T05:04:46.397Z,10.20
2023-05-28T05:07:15.882Z,10.30
2023-05-28T05:09:43.448Z,10.50
2023-05-28T05:12:10.893Z,10.50
2023-05-28T05:14:38.417Z,10.50
2023-05-28T05:17:07.793Z,10.60
2023-05-28T05:19:34.640Z,10.60
2023-05-28T05:22:03.357Z,10.70
2023-05-28T05:24:31.711Z,10.80
2023-05-28T05:26:58.557Z,10.90
2023-05-28T05:29:26.041Z,11.00
2023-05-28T05:31:53.218Z,11.00
2023-05-28T05:34:20.485Z,11.10
2023-05-28T05:37:23.230Z,11.20
2023-05-28T05:40:10.892Z,11.30
2023-05-28T05:42:51.596Z,11.40
2023-05-28T05:45:19.577Z,11.40
2023-05-28T05:47:46.664Z,11.40
2023-05-28T05:50:14.021Z,11.60
2023-05-28T05:52:42.465Z,11.60
2023-05-28T05:55:09.903Z,11.80
2023-05-28T05:57:37.808Z,11.80
2023-05-28T06:00:06.597Z,12.00
2023-05-28T06:02:41.020Z,12.00
2023-05-28T06:05:30.641Z,12.00
2023-05-28T06:08:07.495Z,12.30
2023-05-28T06:10:40.567Z,12.40
2023-05-28T06:13:08.066Z,12.50
2023-05-28T06:15:36.038Z,12.60
2023-05-28T06:18:04.811Z,12.60
2023-05-28T06:20:31.828Z,12.60
2023-05-28T06:22:59.532Z,12.60
2023-05-28T06:25:28.218Z,12.50
2023-05-28T06:27:55.557Z,12.70
2023-05-28T06:30:22.775Z,13.00
2023-05-28T06:32:49.891Z,13.10
2023-05-28T06:35:18.056Z,13.10
2023-05-28T06:37:45.040Z,13.30
2023-05-28T06:40:12.123Z,13.30
2023-05-28T06:42:39.991Z,13.30
2023-05-28T06:45:15.513Z,13.50
2023-05-28T06:47:43.568Z,13.70
2023-05-28T06:50:11.074Z,13.70
2023-05-28T06:52:38.398Z,13.80
2023-05-28T06:55:09.801Z,14.10
2023-05-28T06:57:40.132Z,14.20
2023-05-28T07:00:17.993Z,14.30
2023-05-28T07:02:56.156Z,14.40
2023-05-28T07:05:45.074Z,14.60
2023-05-28T07:08:12.029Z,14.60
2023-05-28T07:10:39.070Z,14.60
2023-05-28T07:13:06.732Z,14.70
2023-05-28T07:15:33.947Z,14.90
2023-05-28T07:18:02.495Z,14.90
2023-05-28T07:20:29.479Z,15.10
2023-05-28T07:23:08.702Z,15.30
2023-05-28T07:25:36.072Z,15.40
2023-05-28T07:28:02.939Z,15.60
2023-05-28T07:30:34.063Z,15.60
2023-05-28T07:33:04.740Z,15.70
2023-05-28T07:35:31.879Z,15.80
2023-05-28T07:37:58.842Z,15.90
2023-05-28T07:40:25.786Z,16.10
2023-05-28T07:42:56.032Z,16.20
2023-05-28T07:45:23.542Z,16.40
2023-05-28T07:47:50.648Z,16.60
2023-05-28T07:50:36.594Z,16.50
2023-05-28T07:53:12.547Z,16.70
2023-05-28T07:55:40.063Z,16.80
2023-05-28T07:58:07.805Z,16.80
2023-05-28T08:00:36.056Z,16.90
2023-05-28T08:03:06.134Z,16.90
2023-05-28T08:05:39.742Z,17.20
2023-05-28T08:08:07.259Z,17.40
2023-05-28T08:10:36.272Z,17.40
2023-05-28T08:13:03.990Z,17.40
2023-05-28T08:15:30.861Z,17.50
2023-05-28T08:17:58.787Z,17.60
2023-05-28T08:20:25.893Z,17.90
2023-05-28T08:22:57.358Z,18.10
2023-05-28T08:25:24.908Z,17.90
2023-05-28T08:27:57.991Z,18.10
2023-05-28T08:30:26.606Z,18.10
2023-05-28T08:33:01.733Z,18.20
2023-05-28T08:35:28.728Z,18.30
2023-05-28T08:37:57.493Z,18.30
2023-05-28T08:40:42.000Z,18.70
2023-05-28T08:43:10.031Z,19.00
2023-05-28T08:45:38.810Z,18.90
2023-05-28T08:48:10.176Z,18.90
2023-05-28T08:50:41.447Z,19.00
2023-05-28T08:53:23.024Z,19.10
2023-05-28T08:55:50.703Z,19.10
2023-05-28T08:58:21.542Z,19.30
2023-05-28T09:00:50.088Z,19.40
2023-05-28T09:03:26.176Z,19.30
2023-05-28T09:05:55.662Z,19.50
2023-05-28T09:08:23.963Z,19.70
2023-05-28T09:10:50.886Z,19.90
2023-05-28T09:13:21.737Z,20.00
2023-05-28T09:15:53.204Z,20.30
2023-05-28T09:18:24.700Z,20.20
2023-05-28T09:20:52.665Z,20.30
2023-05-28T09:23:29.520Z,20.50
2023-05-28T09:26:15.088Z,20.70
2023-05-28T09:28:53.545Z,20.80
2023-05-28T09:31:20.664Z,20.80
2023-05-28T09:33:47.802Z,21.10
2023-05-28T09:36:18.686Z,20.90
2023-05-28T09:38:46.344Z,20.80
2023-05-28T09:41:24.024Z,20.90
2023-05-28T09:44:02.002Z,21.10
2023-05-28T09:46:33.938Z,21.20
2023-05-28T09:49:01.853Z,21.00
2023-05-28T09:51:31.021Z,21.10
2023-05-28T09:54:06.779Z,21.40
2023-05-28T09:56:37.558Z,21.70
2023-05-28T09:59:08.316Z,21.40
2023-05-28T10:01:49.947Z,21.40
2023-05-28T10:04:21.683Z,22.00
2023-05-28T10:06:48.979Z,22.20
2023-05-28T10:09:17.550Z,22.40
2023-05-28T10:11:51.670Z,22.40
2023-05-28T10:14:19.073Z,22.30
2023-05-28T10:16:47.268Z,22.50
2023-05-28T10:19:15.106Z,22.20
2023-05-28T10:21:42.235Z,22.20
2023-05-28T10:24:09.227Z,22.20
2023-05-28T10:26:36.197Z,22.20
2023-05-28T10:29:08.689Z,22.70
2023-05-28T10:31:35.777Z,22.80
2023-05-28T10:34:18.043Z,23.10
2023-05-28T10:37:03.044Z,23.40
2023-05-28T10:39:47.040Z,23.50
2023-05-28T10:42:18.905Z,23.40
2023-05-28T10:45:01.311Z,22.80
2023-05-28T10:47:33.220Z,22.70
2023-05-28T10:52:40.741Z,23.20
2023-05-28T10:55:10.267Z,23.60
2023-05-28T10:57:41.982Z,23.90
2023-05-28T11:00:14.639Z,23.70
2023-05-28T11:02:46.077Z,23.80
2023-05-28T11:05:13.310Z,23.50
2023-05-28T11:07:42.336Z,23.40
2023-05-28T11:10:16.279Z,23.70
2023-05-28T11:12:45.078Z,24.00
2023-05-28T11:15:14.229Z,23.90
2023-05-28T11:17:42.877Z,23.90
2023-05-28T11:20:20.007Z,23.90
2023-05-28T11:22:47.493Z,24.20
2023-05-28T11:25:15.241Z,24.10
2023-05-28T11:27:42.646Z,24.40
2023-05-28T11:30:15.224Z,24.50
2023-05-28T11:32:43.844Z,24.50
2023-05-28T11:35:15.004Z,24.60
2023-05-28T11:37:43.586Z,24.20
2023-05-28T11:40:12.712Z,24.50
2023-05-28T11:42:44.578Z,25.00
2023-05-28T11:45:13.193Z,25.20
2023-05-28T11:47:40.721Z,25.00
2023-05-28T11:50:13.344Z,24.90
2023-05-28T11:52:40.593Z,24.70
2023-05-28T11:55:08.730Z,25.00
2023-05-28T11:57:39.831Z,25.10
2023-05-28T12:00:27.424Z,25.20
2023-05-28T12:02:55.424Z,25.30
2023-05-28T12:05:22.317Z,25.60
2023-05-28T12:07:51.505Z,25.80
2023-05-28T12:10:21.476Z,26.00
2023-05-28T12:12:53.326Z,26.00
2023-05-28T12:15:29.417Z,26.00
2023-05-28T12:18:02.053Z,26.00
2023-05-28T12:20:33.523Z,25.90
2023-05-28T12:23:13.462Z,25.90
2023-05-28T12:25:43.176Z,26.40
2023-05-28T12:28:17.753Z,26.40
2023-05-28T12:30:46.009Z,26.20
2023-05-28T12:33:13.135Z,26.40
2023-05-28T12:35:40.404Z,26.20
2023-05-28T12:38:07.414Z,26.40
2023-05-28T12:40:34.294Z,26.60
2023-05-28T12:43:01.176Z,26.60
2023-05-28T12:45:28.970Z,26.50
2023-05-28T12:47:55.888Z,26.60
2023-05-28T12:50:24.701Z,26.60
2023-05-28T12:52:51.717Z,26.10
2023-05-28T12:55:19.158Z,26.30
2023-05-28T12:57:46.194Z,26.60
2023-05-28T13:00:13.804Z,26.80
2023-05-28T13:02:41.027Z,27.20
2023-05-28T13:05:08.725Z,27.00
2023-05-28T13:07:35.719Z,27.00
2023-05-28T13:10:02.896Z,26.40
2023-05-28T13:12:29.745Z,26.80
2023-05-28T13:14:56.861Z,26.60
2023-05-28T13:17:23.811Z,26.60
2023-05-28T13:19:50.654Z,27.00
2023-05-28T13:22:17.486Z,27.10
2023-05-28T13:24:47.540Z,27.10
2023-05-28T13:27:15.526Z,27.30
2023-05-28T13:29:42.824Z,27.50
2023-05-28T13:32:10.150Z,27.50
2023-05-28T13:34:38.950Z,27.70
2023-05-28T13:37:05.909Z,27.80
2023-05-28T13:39:33.161Z,27.60
2023-05-28T13:42:00.147Z,27.30
2023-05-28T13:44:27.099Z,27.50
2023-05-28T13:46:54.559Z,27.50
2023-05-28T13:49:21.571Z,27.70
2023-05-28T13:51:48.741Z,27.70
2023-05-28T13:54:16.296Z,27.60
2023-05-28T13:56:44.067Z,27.30
2023-05-28T13:59:10.988Z,27.40
2023-05-28T14:01:38.017Z,27.50
2023-05-28T14:04:05.327Z,27.40
2023-05-28T14:06:33.579Z,27.10
2023-05-28T14:09:00.642Z,27.50
2023-05-28T14:11:36.858Z,27.80
2023-05-28T14:14:08.230Z,27.80
2023-05-28T14:16:35.134Z,28.00
2023-05-28T14:19:02.479Z,27.70
2023-05-28T14:21:29.317Z,27.70
2023-05-28T14:23:56.146Z,27.90
2023-05-28T14:26:23.121Z,27.60
2023-05-28T14:28:49.985Z,27.70
2023-05-28T14:31:16.880Z,27.60
2023-05-28T14:33:44.299Z,27.70
2023-05-28T14:36:15.927Z,27.70
2023-05-28T14:38:44.350Z,27.80
2023-05-28T14:41:11.226Z,27.70
2023-05-28T14:43:38.074Z,27.50
2023-05-28T14:46:05.030Z,27.10
2023-05-28T14:48:32.000Z,27.30
2023-05-28T14:50:59.096Z,27.60
2023-05-28T14:53:26.034Z,27.90
2023-05-28T14:55:53.311Z,27.70
2023-05-28T14:58:20.459Z,27.70
2023-05-28T15:00:47.320Z,28.00
2023-05-28T15:03:14.292Z,27.80
2023-05-28T15:05:41.492Z,27.60
2023-05-28T15:08:08.733Z,27.90
2023-05-28T15:10:35.603Z,27.60
2023-05-28T15:13:02.580Z,27.70
2023-05-28T15:15:29.499Z,27.50
2023-05-28T15:17:56.385Z,27.50
2023-05-28T15:20:23.501Z,27.50
2023-05-28T15:22:50.552Z,27.50
2023-05-28T15:25:23.152Z,27.60
2023-05-28T15:27:52.844Z,27.40
2023-05-28T15:30:23.864Z,27.50
2023-05-28T15:32:55.290Z,27.40
2023-05-28T15:35:22.395Z,27.60
2023-05-28T15:37:49.960Z,27.40
2023-05-28T15:40:17.071Z,27.20
2023-05-28T15:42:45.441Z,27.60
2023-05-28T15:45:12.761Z,27.30
2023-05-28T15:47:39.723Z,27.60
2023-05-28T15:50:09.654Z,27.70
2023-05-28T15:52:36.720Z,27.10
2023-05-28T15:55:04.445Z,27.40
2023-05-28T15:57:31.381Z,27.40
2023-05-28T15:59:58.378Z,27.30
2023-05-28T16:02:25.977Z,27.40
2023-05-28T16:04:53.042Z,27.30
2023-05-28T16:07:20.250Z,27.40
2023-05-28T16:09:47.241Z,27.10
2023-05-28T16:12:16.082Z,27.10
2023-05-28T16:14:45.453Z,27.10
2023-05-28T16:17:13.682Z,27.10
2023-05-28T16:19:42.040Z,27.00
2023-05-28T16:22:09.545Z,27.20
2023-05-28T16:24:37.976Z,27.00
2023-05-28T16:27:07.516Z,26.90
2023-05-28T16:29:34.811Z,27.00
2023-05-28T16:32:02.007Z,26.50
2023-05-28T16:34:30.614Z,26.40
2023-05-28T16:36:58.706Z,26.50
2023-05-28T16:39:26.158Z,26.40
2023-05-28T16:41:53.319Z,26.70
2023-05-28T16:44:20.430Z,26.50
2023-05-28T16:46:49.081Z,26.30
2023-05-28T16:49:16.306Z,26.50
2023-05-28T16:51:43.782Z,26.30
2023-05-28T16:54:12.544Z,26.30
2023-05-28T16:56:39.400Z,26.40
2023-05-28T16:59:06.273Z,26.50
2023-05-28T17:01:33.528Z,26.10
2023-05-28T17:04:00.550Z,26.20
2023-05-28T17:06:30.395Z,26.30
2023-05-28T17:08:57.701Z,26.30
2023-05-28T17:11:24.545Z,26.10
2023-05-28T17:13:51.378Z,25.80
2023-05-28T17:16:19.881Z,26.00
2023-05-28T17:18:47.933Z,25.90
2023-05-28T17:21:14.803Z,25.80
2023-05-28T17:23:41.655Z,25.80
2023-05-28T17:26:08.656Z,25.50
2023-05-28T17:28:35.612Z,25.60
2023-05-28T17:31:02.509Z,25.50
2023-05-28T17:33:29.964Z,25.70
2023-05-28T17:35:56.822Z,25.70
2023-05-28T17:38:23.681Z,25.50
2023-05-28T17:40:51.214Z,25.40
2023-05-28T17:43:18.191Z,25.20
2023-05-28T17:45:47.506Z,25.20
2023-05-28T17:48:14.416Z,25.20
2023-05-28T17:50:41.525Z,25.20
2023-05-28T17:53:08.749Z,25.20
2023-05-28T17:55:36.322Z,25.00
2023-05-28T17:58:03.201Z,24.90
2023-05-28T18:00:31.635Z,25.00
2023-05-28T18:02:59.375Z,24.90
2023-05-28T18:05:28.305Z,24.80
2023-05-28T18:07:55.354Z,24.90
2023-05-28T18:10:22.205Z,24.80
2023-05-28T18:12:49.068Z,24.70
2023-05-28T18:15:16.155Z,24.60
2023-05-28T18:17:43.480Z,24.50
2023-05-28T18:20:10.739Z,24.40
2023-05-28T18:22:37.731Z,24.40
2023-05-28T18:25:04.823Z,24.10
2023-05-28T18:27:32.057Z,24.00
2023-05-28T18:29:58.916Z,24.00
2023-05-28T18:32:25.811Z,23.80
2023-05-28T18:34:52.716Z,23.80
2023-05-28T18:37:19.552Z,23.80
2023-05-28T18:39:47.882Z,23.70
2023-05-28T18:42:14.735Z,23.50
2023-05-28T18:44:43.188Z,23.30
2023-05-28T18:47:10.112Z,23.10
2023-05-28T18:49:37.592Z,22.90
2023-05-28T18:52:04.964Z,22.70
2023-05-28T18:54:32.484Z,22.50
2023-05-28T18:57:02.870Z,22.20
2023-05-28T18:59:30.128Z,22.10
2023-05-28T19:01:57.008Z,22.10
2023-05-28T19:04:23.945Z,21.90
2023-05-28T19:06:50.792Z,21.70
2023-05-28T19:09:17.609Z,21.60
2023-05-28T19:11:44.903Z,21.30
2023-05-28T19:14:11.752Z,21.20
2023-05-28T19:16:38.780Z,21.10
2023-05-28T19:19:05.729Z,20.90
2023-05-28T19:21:32.738Z,20.80
2023-05-28T19:23:59.556Z,20.60
2023-05-28T19:26:26.915Z,20.50
2023-05-28T19:28:53.800Z,20.40
2023-05-28T19:31:21.233Z,20.30
2023-05-28T19:33:48.173Z,20.00
2023-05-28T19:36:17.305Z,20.20
2023-05-28T19:38:45.238Z,20.10
2023-05-28T19:41:12.327Z,20.00
2023-05-28T19:43:40.019Z,19.90
2023-05-28T19:46:06.855Z,19.80
2023-05-28T19:48:34.142Z,19.80
2023-05-28T19:51:01.271Z,19.80
2023-05-28T19:53:28.345Z,19.90
2023-05-28T19:55:55.184Z,19.90
2023-05-28T19:58:22.458Z,19.70
2023-05-28T20:00:49.487Z,19.50
2023-05-28T20:03:16.914Z,19.50
2023-05-28T20:05:44.149Z,19.50
2023-05-28T20:08:11.057Z,19.60
2023-05-28T20:10:38.335Z,19.30
2023-05-28T20:13:05.627Z,19.20
2023-05-28T20:15:32.487Z,19.20
2023-05-28T20:17:59.465Z,19.10
2023-05-28T20:20:26.387Z,19.20
2023-05-28T20:22:53.290Z,18.90
2023-05-28T20:25:20.211Z,18.90
2023-05-28T20:27:47.116Z,18.80
2023-05-28T20:30:15.751Z,18.70
2023-05-28T20:32:42.659Z,18.50
2023-05-28T20:35:10.969Z,18.40
2023-05-28T20:37:40.266Z,18.50
2023-05-28T20:40:09.386Z,18.50
2023-05-28T20:42:36.240Z,18.70
2023-05-28T20:45:04.037Z,18.50
2023-05-28T20:47:31.594Z,18.50
2023-05-28T20:49:58.529Z,18.60
2023-05-28T20:52:25.609Z,18.50
2023-05-28T20:54:52.433Z,18.50
2023-05-28T20:57:19.251Z,18.60
2023-05-28T20:59:46.760Z,18.40
2023-05-28T21:02:13.659Z,18.10
2023-05-28T21:04:40.629Z,18.20
2023-05-28T21:07:07.548Z,18.10
2023-05-28T21:09:34.399Z,17.60
2023-05-28T21:12:02.501Z,17.50
2023-05-28T21:14:29.417Z,17.50
2023-05-28T21:16:56.321Z,17.30
2023-05-28T21:19:23.211Z,17.40
2023-05-28T21:21:50.029Z,17.10
2023-05-28T21:24:16.847Z,17.10
2023-05-28T21:26:43.677Z,17.00
2023-05-28T21:29:10.675Z,16.80
2023-05-28T21:31:37.553Z,16.80
2023-05-28T21:34:05.630Z,17.00
2023-05-28T21:36:33.167Z,16.80
2023-05-28T21:39:00.018Z,16.60
2023-05-28T21:41:26.947Z,16.40
2023-05-28T21:43:54.129Z,16.70
2023-05-28T21:46:21.420Z,16.70
2023-05-28T21:48:48.404Z,16.40
2023-05-28T21:51:16.920Z,16.40
2023-05-28T21:53:43.792Z,16.30
2023-05-28T21:56:11.506Z,16.30
2023-05-28T21:58:38.370Z,16.10
2023-05-28T22:01:05.282Z,16.00
2023-05-28T22:03:32.271Z,16.00
2023-05-28T22:05:59.204Z,15.90
2023-05-28T22:08:26.367Z,16.00
2023-05-28T22:10:53.427Z,16.00
2023-05-28T22:13:20.284Z,15.80
2023-05-28T22:15:47.456Z,15.80
2023-05-28T22:18:15.346Z,15.90
2023-05-28T22:20:43.738Z,15.60
2023-05-28T22:23:12.190Z,15.60
2023-05-28T22:25:41.815Z,15.50
2023-05-28T22:28:09.005Z,15.40
2023-05-28T22:30:36.173Z,15.40
2023-05-28T22:33:03.040Z,15.40
2023-05-28T22:35:30.335Z,15.30
2023-05-28T22:37:57.145Z,15.30
2023-05-28T22:40:24.139Z,15.10
2023-05-28T22:42:51.725Z,15.00
2023-05-28T22:45:19.212Z,15.10
2023-05-28T22:47:48.017Z,15.00
2023-05-28T22:50:15.609Z,14.80
2023-05-28T22:52:42.927Z,14.60
2023-05-28T22:55:11.294Z,14.60
2023-05-28T22:57:38.603Z,14.80
2023-05-28T23:00:13.108Z,14.60
2023-05-28T23:02:45.711Z,14.60
2023-05-28T23:05:15.750Z,14.60
2023-05-28T23:07:43.597Z,14.40
2023-05-28T23:10:11.158Z,14.30
2023-05-28T23:12:38.182Z,14.30
2023-05-28T23:15:05.655Z,13.90
2023-05-28T23:17:32.693Z,14.20
2023-05-28T23:20:00.854Z,14.20
2023-05-28T23:22:27.813Z,14.30
2023-05-28T23:24:54.890Z,14.30
2023-05-28T23:27:22.017Z,14.00
2023-05-28T23:29:48.953Z,13.90
2023-05-28T23:32:16.329Z,13.90
2023-05-28T23:34:43.656Z,13.90
2023-05-28T23:37:10.584Z,13.70
2023-05-28T23:39:37.458Z,13.80
2023-05-28T23:42:04.722Z,13.70
2023-05-28T23:44:31.940Z,13.90
2023-05-28T23:46:59.046Z,13.90
2023-05-28T23:49:25.985Z,13.80
2023-05-28T23:51:53.058Z,13.80
2023-05-28T23:54:19.839Z,13.70
2023-05-28T23:56:46.723Z,13.50
2023-05-28T23:59:13.938Z,13.70
